Gilmour, Indiana
Current Conditions -  °F | °C
As of 6:53 PM on Wednesday 22 Oct 2014 (Local Time) from KHUF Reporting Station
Clear Clear  
Wind Chill: 55°   Ceiling: Unl
Heat Index: 55°   Visibility: 10mi
Dew Point: 40°   Wind: 3mph
Humidity: 57%   Direction: 80°E
Pressure: 30.25"   Gusts: NA
Location:  39.2016°N, 87.1874°W
Report Text: KHUF 222253Z 08003KT 10SM CLR 13/04 A3025 RMK AO2 SLP246 T01280044
Loading
Personal Weather Stations






























Interactive Weather Map
Tropical Storm Tracking
New forecast layout! Learn more

10-Day Weather Forecast

Advertisements
Track Severe Weather on mobile